sensor_id;sensor_type;location;lat;lon;timestamp;P1;durP1;ratioP1;P2;durP2;ratioP2
58472;SDS011;44775;51.564;5.460;2023-02-11T00:02:18;33.35;;;17.65;;
58472;SDS011;44775;51.564;5.460;2023-02-11T00:04:43;27.40;;;17.00;;
58472;SDS011;44775;51.564;5.460;2023-02-11T00:07:09;30.55;;;17.30;;
58472;SDS011;44775;51.564;5.460;2023-02-11T00:09:35;32.75;;;17.80;;
58472;SDS011;44775;51.564;5.460;2023-02-11T00:12:01;30.73;;;17.00;;
58472;SDS011;44775;51.564;5.460;2023-02-11T00:14:27;37.00;;;16.75;;
58472;SDS011;44775;51.564;5.460;2023-02-11T00:16:52;31.50;;;16.45;;
58472;SDS011;44775;51.564;5.460;2023-02-11T00:19:17;33.60;;;16.70;;
58472;SDS011;44775;51.564;5.460;2023-02-11T00:21:43;28.95;;;15.98;;
58472;SDS011;44775;51.564;5.460;2023-02-11T00:24:08;29.75;;;16.63;;
58472;SDS011;44775;51.564;5.460;2023-02-11T00:26:34;27.95;;;15.68;;
58472;SDS011;44775;51.564;5.460;2023-02-11T00:29:00;28.45;;;15.63;;
58472;SDS011;44775;51.564;5.460;2023-02-11T00:31:26;30.10;;;15.32;;
58472;SDS011;44775;51.564;5.460;2023-02-11T00:33:52;28.50;;;16.10;;
58472;SDS011;44775;51.564;5.460;2023-02-11T00:36:19;27.65;;;14.55;;
58472;SDS011;44775;51.564;5.460;2023-02-11T00:38:46;32.50;;;15.18;;
58472;SDS011;44775;51.564;5.460;2023-02-11T00:41:13;34.50;;;15.38;;
58472;SDS011;44775;51.564;5.460;2023-02-11T00:43:39;24.73;;;13.85;;
58472;SDS011;44775;51.564;5.460;2023-02-11T00:46:05;27.30;;;15.00;;
58472;SDS011;44775;51.564;5.460;2023-02-11T00:48:31;23.58;;;14.40;;
58472;SDS011;44775;51.564;5.460;2023-02-11T00:50:57;29.35;;;14.82;;
58472;SDS011;44775;51.564;5.460;2023-02-11T00:53:22;24.02;;;14.48;;
58472;SDS011;44775;51.564;5.460;2023-02-11T00:55:48;28.73;;;13.75;;
58472;SDS011;44775;51.564;5.460;2023-02-11T00:58:13;28.85;;;14.90;;
58472;SDS011;44775;51.564;5.460;2023-02-11T01:00:39;28.63;;;14.73;;
58472;SDS011;44775;51.564;5.460;2023-02-11T01:03:04;26.15;;;14.15;;
58472;SDS011;44775;51.564;5.460;2023-02-11T01:05:30;29.95;;;13.93;;
58472;SDS011;44775;51.564;5.460;2023-02-11T01:07:56;30.25;;;14.73;;
58472;SDS011;44775;51.564;5.460;2023-02-11T01:10:21;24.85;;;14.50;;
58472;SDS011;44775;51.564;5.460;2023-02-11T01:12:47;30.92;;;14.05;;
58472;SDS011;44775;51.564;5.460;2023-02-11T01:15:14;25.38;;;13.95;;
58472;SDS011;44775;51.564;5.460;2023-02-11T01:17:40;24.92;;;14.18;;
58472;SDS011;44775;51.564;5.460;2023-02-11T01:20:06;25.08;;;13.75;;
58472;SDS011;44775;51.564;5.460;2023-02-11T01:22:36;25.00;;;13.50;;
58472;SDS011;44775;51.564;5.460;2023-02-11T01:25:03;23.95;;;13.32;;
58472;SDS011;44775;51.564;5.460;2023-02-11T01:27:30;27.52;;;14.95;;
58472;SDS011;44775;51.564;5.460;2023-02-11T01:29:55;25.38;;;13.55;;
58472;SDS011;44775;51.564;5.460;2023-02-11T01:32:21;27.88;;;14.30;;
58472;SDS011;44775;51.564;5.460;2023-02-11T01:34:46;21.95;;;13.65;;
58472;SDS011;44775;51.564;5.460;2023-02-11T01:37:12;29.13;;;14.35;;
58472;SDS011;44775;51.564;5.460;2023-02-11T01:39:37;28.27;;;13.82;;
58472;SDS011;44775;51.564;5.460;2023-02-11T01:42:03;25.02;;;13.60;;
58472;SDS011;44775;51.564;5.460;2023-02-11T01:44:30;25.90;;;13.77;;
58472;SDS011;44775;51.564;5.460;2023-02-11T01:47:01;34.17;;;13.98;;
58472;SDS011;44775;51.564;5.460;2023-02-11T01:49:36;27.15;;;14.15;;
58472;SDS011;44775;51.564;5.460;2023-02-11T01:52:05;22.92;;;13.60;;
58472;SDS011;44775;51.564;5.460;2023-02-11T01:54:33;24.63;;;13.70;;
58472;SDS011;44775;51.564;5.460;2023-02-11T01:57:21;27.48;;;13.93;;
58472;SDS011;44775;51.564;5.460;2023-02-11T02:00:03;26.55;;;13.32;;
58472;SDS011;44775;51.564;5.460;2023-02-11T02:02:43;25.05;;;13.13;;
58472;SDS011;44775;51.564;5.460;2023-02-11T02:10:36;22.55;;;13.07;;
58472;SDS011;44775;51.564;5.460;2023-02-11T02:13:09;25.00;;;13.45;;
58472;SDS011;44775;51.564;5.460;2023-02-11T02:15:35;23.85;;;13.20;;
58472;SDS011;44775;51.564;5.460;2023-02-11T02:18:08;26.48;;;13.18;;
58472;SDS011;44775;51.564;5.460;2023-02-11T02:20:51;24.00;;;13.02;;
58472;SDS011;44775;51.564;5.460;2023-02-11T02:32:20;30.23;;;13.25;;
58472;SDS011;44775;51.564;5.460;2023-02-11T02:34:49;26.60;;;12.05;;
58472;SDS011;44775;51.564;5.460;2023-02-11T02:40:13;24.05;;;12.88;;
58472;SDS011;44775;51.564;5.460;2023-02-11T02:42:42;27.30;;;12.73;;
58472;SDS011;44775;51.564;5.460;2023-02-11T02:45:08;23.70;;;12.73;;
58472;SDS011;44775;51.564;5.460;2023-02-11T02:47:36;25.77;;;12.70;;
58472;SDS011;44775;51.564;5.460;2023-02-11T02:50:02;25.17;;;12.40;;
58472;SDS011;44775;51.564;5.460;2023-02-11T02:52:33;26.15;;;13.32;;
58472;SDS011;44775;51.564;5.460;2023-02-11T03:00:42;26.92;;;12.40;;
58472;SDS011;44775;51.564;5.460;2023-02-11T03:06:02;23.75;;;12.73;;
58472;SDS011;44775;51.564;5.460;2023-02-11T03:08:37;23.00;;;12.57;;
58472;SDS011;44775;51.564;5.460;2023-02-11T03:11:08;26.45;;;13.32;;
58472;SDS011;44775;51.564;5.460;2023-02-11T03:13:37;25.77;;;12.38;;
58472;SDS011;44775;51.564;5.460;2023-02-11T03:16:25;23.88;;;12.77;;
58472;SDS011;44775;51.564;5.460;2023-02-11T03:18:58;25.55;;;12.88;;
58472;SDS011;44775;51.564;5.460;2023-02-11T03:21:29;26.77;;;11.70;;
58472;SDS011;44775;51.564;5.460;2023-02-11T03:23:59;23.53;;;12.57;;
58472;SDS011;44775;51.564;5.460;2023-02-11T03:29:03;26.67;;;12.45;;
58472;SDS011;44775;51.564;5.460;2023-02-11T03:31:40;28.65;;;14.38;;
58472;SDS011;44775;51.564;5.460;2023-02-11T03:34:40;28.63;;;12.82;;
58472;SDS011;44775;51.564;5.460;2023-02-11T03:37:18;23.05;;;12.15;;
58472;SDS011;44775;51.564;5.460;2023-02-11T03:39:50;25.15;;;13.02;;
58472;SDS011;44775;51.564;5.460;2023-02-11T03:42:25;29.73;;;12.73;;
58472;SDS011;44775;51.564;5.460;2023-02-11T03:44:57;24.23;;;12.52;;
58472;SDS011;44775;51.564;5.460;2023-02-11T03:47:28;24.88;;;12.05;;
58472;SDS011;44775;51.564;5.460;2023-02-11T03:49:57;23.10;;;12.15;;
58472;SDS011;44775;51.564;5.460;2023-02-11T03:52:25;26.58;;;12.18;;
58472;SDS011;44775;51.564;5.460;2023-02-11T03:54:52;23.40;;;12.40;;
58472;SDS011;44775;51.564;5.460;2023-02-11T03:57:22;21.35;;;12.32;;
58472;SDS011;44775;51.564;5.460;2023-02-11T03:59:48;29.02;;;12.75;;
58472;SDS011;44775;51.564;5.460;2023-02-11T04:02:17;26.33;;;12.35;;
58472;SDS011;44775;51.564;5.460;2023-02-11T04:04:43;25.05;;;12.05;;
58472;SDS011;44775;51.564;5.460;2023-02-11T04:07:10;24.75;;;12.15;;
58472;SDS011;44775;51.564;5.460;2023-02-11T04:09:36;25.02;;;12.75;;
58472;SDS011;44775;51.564;5.460;2023-02-11T04:12:02;26.83;;;13.02;;
58472;SDS011;44775;51.564;5.460;2023-02-11T04:14:28;22.67;;;12.50;;
58472;SDS011;44775;51.564;5.460;2023-02-11T04:16:53;28.52;;;12.15;;
58472;SDS011;44775;51.564;5.460;2023-02-11T04:19:19;24.45;;;13.68;;
58472;SDS011;44775;51.564;5.460;2023-02-11T04:21:44;23.55;;;12.35;;
58472;SDS011;44775;51.564;5.460;2023-02-11T04:24:09;26.50;;;11.95;;
58472;SDS011;44775;51.564;5.460;2023-02-11T04:26:35;24.10;;;12.55;;
58472;SDS011;44775;51.564;5.460;2023-02-11T04:29:00;22.33;;;12.32;;
58472;SDS011;44775;51.564;5.460;2023-02-11T04:31:26;23.90;;;11.90;;
58472;SDS011;44775;51.564;5.460;2023-02-11T04:33:51;28.35;;;12.90;;
58472;SDS011;44775;51.564;5.460;2023-02-11T04:36:16;30.73;;;13.00;;
58472;SDS011;44775;51.564;5.460;2023-02-11T04:38:42;27.85;;;13.07;;
58472;SDS011;44775;51.564;5.460;2023-02-11T04:41:07;31.58;;;13.05;;
58472;SDS011;44775;51.564;5.460;2023-02-11T04:43:33;27.38;;;13.43;;
58472;SDS011;44775;51.564;5.460;2023-02-11T04:45:58;28.67;;;13.65;;
58472;SDS011;44775;51.564;5.460;2023-02-11T04:48:24;25.27;;;13.73;;
58472;SDS011;44775;51.564;5.460;2023-02-11T04:50:50;26.20;;;13.18;;
58472;SDS011;44775;51.564;5.460;2023-02-11T04:53:15;25.23;;;13.18;;
58472;SDS011;44775;51.564;5.460;2023-02-11T04:55:41;29.30;;;12.95;;
58472;SDS011;44775;51.564;5.460;2023-02-11T04:58:06;31.95;;;14.23;;
58472;SDS011;44775;51.564;5.460;2023-02-11T05:00:31;29.25;;;13.55;;
58472;SDS011;44775;51.564;5.460;2023-02-11T05:02:57;27.05;;;13.57;;
58472;SDS011;44775;51.564;5.460;2023-02-11T05:05:22;27.20;;;13.85;;
58472;SDS011;44775;51.564;5.460;2023-02-11T05:07:48;25.27;;;13.20;;
58472;SDS011;44775;51.564;5.460;2023-02-11T05:10:13;43.47;;;15.43;;
58472;SDS011;44775;51.564;5.460;2023-02-11T05:12:39;30.70;;;13.88;;
58472;SDS011;44775;51.564;5.460;2023-02-11T05:15:04;28.23;;;14.70;;
58472;SDS011;44775;51.564;5.460;2023-02-11T05:17:30;31.40;;;14.65;;
58472;SDS011;44775;51.564;5.460;2023-02-11T05:19:55;32.80;;;14.70;;
58472;SDS011;44775;51.564;5.460;2023-02-11T05:22:21;30.17;;;14.38;;
58472;SDS011;44775;51.564;5.460;2023-02-11T05:24:46;31.25;;;14.50;;
58472;SDS011;44775;51.564;5.460;2023-02-11T05:27:12;31.73;;;14.70;;
58472;SDS011;44775;51.564;5.460;2023-02-11T05:29:37;31.55;;;15.32;;
58472;SDS011;44775;51.564;5.460;2023-02-11T05:32:03;31.25;;;14.90;;
58472;SDS011;44775;51.564;5.460;2023-02-11T05:34:28;30.17;;;15.70;;
58472;SDS011;44775;51.564;5.460;2023-02-11T05:36:54;31.27;;;15.25;;
58472;SDS011;44775;51.564;5.460;2023-02-11T05:39:20;31.58;;;15.52;;
58472;SDS011;44775;51.564;5.460;2023-02-11T05:41:45;33.00;;;16.10;;
58472;SDS011;44775;51.564;5.460;2023-02-11T05:44:10;34.33;;;16.42;;
58472;SDS011;44775;51.564;5.460;2023-02-11T05:46:36;28.77;;;15.27;;
58472;SDS011;44775;51.564;5.460;2023-02-11T05:49:02;31.20;;;16.40;;
58472;SDS011;44775;51.564;5.460;2023-02-11T05:51:27;31.90;;;16.23;;
58472;SDS011;44775;51.564;5.460;2023-02-11T05:53:53;39.55;;;18.25;;
58472;SDS011;44775;51.564;5.460;2023-02-11T05:56:18;34.38;;;17.33;;
58472;SDS011;44775;51.564;5.460;2023-02-11T05:58:44;34.15;;;17.73;;
58472;SDS011;44775;51.564;5.460;2023-02-11T06:01:09;38.80;;;17.77;;
58472;SDS011;44775;51.564;5.460;2023-02-11T06:03:34;34.15;;;17.80;;
58472;SDS011;44775;51.564;5.460;2023-02-11T06:06:00;32.33;;;17.58;;
58472;SDS011;44775;51.564;5.460;2023-02-11T06:08:25;39.80;;;18.90;;
58472;SDS011;44775;51.564;5.460;2023-02-11T06:10:51;34.08;;;18.70;;
58472;SDS011;44775;51.564;5.460;2023-02-11T06:13:16;36.08;;;18.75;;
58472;SDS011;44775;51.564;5.460;2023-02-11T06:15:43;39.58;;;19.25;;
58472;SDS011;44775;51.564;5.460;2023-02-11T06:18:08;36.97;;;18.95;;
58472;SDS011;44775;51.564;5.460;2023-02-11T06:20:34;32.78;;;16.30;;
58472;SDS011;44775;51.564;5.460;2023-02-11T06:23:00;34.40;;;19.10;;
58472;SDS011;44775;51.564;5.460;2023-02-11T06:25:25;41.47;;;20.85;;
58472;SDS011;44775;51.564;5.460;2023-02-11T06:27:50;42.65;;;20.98;;
58472;SDS011;44775;51.564;5.460;2023-02-11T06:30:16;41.95;;;21.58;;
58472;SDS011;44775;51.564;5.460;2023-02-11T06:32:41;40.83;;;20.55;;
58472;SDS011;44775;51.564;5.460;2023-02-11T06:35:07;19.20;;;11.73;;
58472;SDS011;44775;51.564;5.460;2023-02-11T06:37:33;40.72;;;21.80;;
58472;SDS011;44775;51.564;5.460;2023-02-11T06:39:59;41.08;;;20.15;;
58472;SDS011;44775;51.564;5.460;2023-02-11T06:42:24;48.45;;;23.17;;
58472;SDS011;44775;51.564;5.460;2023-02-11T06:44:50;44.47;;;22.85;;
58472;SDS011;44775;51.564;5.460;2023-02-11T06:47:15;46.05;;;22.58;;
58472;SDS011;44775;51.564;5.460;2023-02-11T06:49:41;44.28;;;21.50;;
58472;SDS011;44775;51.564;5.460;2023-02-11T06:52:06;48.67;;;23.17;;
58472;SDS011;44775;51.564;5.460;2023-02-11T06:54:31;40.47;;;23.15;;
58472;SDS011;44775;51.564;5.460;2023-02-11T06:56:57;46.92;;;22.27;;
58472;SDS011;44775;51.564;5.460;2023-02-11T06:59:22;42.90;;;21.98;;
58472;SDS011;44775;51.564;5.460;2023-02-11T07:01:48;46.03;;;22.55;;
58472;SDS011;44775;51.564;5.460;2023-02-11T07:04:13;46.90;;;23.30;;
58472;SDS011;44775;51.564;5.460;2023-02-11T07:06:39;48.28;;;23.52;;
58472;SDS011;44775;51.564;5.460;2023-02-11T07:09:05;45.45;;;23.40;;
58472;SDS011;44775;51.564;5.460;2023-02-11T07:11:31;47.75;;;23.50;;
58472;SDS011;44775;51.564;5.460;2023-02-11T07:14:02;43.35;;;22.75;;
58472;SDS011;44775;51.564;5.460;2023-02-11T07:16:30;54.67;;;24.95;;
58472;SDS011;44775;51.564;5.460;2023-02-11T07:18:56;46.00;;;24.20;;
58472;SDS011;44775;51.564;5.460;2023-02-11T07:21:22;51.83;;;23.83;;
58472;SDS011;44775;51.564;5.460;2023-02-11T07:23:48;46.45;;;24.42;;
58472;SDS011;44775;51.564;5.460;2023-02-11T07:26:15;49.97;;;24.83;;
58472;SDS011;44775;51.564;5.460;2023-02-11T07:28:43;47.00;;;24.52;;
58472;SDS011;44775;51.564;5.460;2023-02-11T07:31:10;48.60;;;24.33;;
58472;SDS011;44775;51.564;5.460;2023-02-11T07:33:46;50.60;;;24.65;;
58472;SDS011;44775;51.564;5.460;2023-02-11T07:36:12;51.05;;;25.52;;
58472;SDS011;44775;51.564;5.460;2023-02-11T07:38:39;56.13;;;25.40;;
58472;SDS011;44775;51.564;5.460;2023-02-11T07:41:06;59.47;;;26.15;;
58472;SDS011;44775;51.564;5.460;2023-02-11T07:43:36;48.22;;;26.70;;
58472;SDS011;44775;51.564;5.460;2023-02-11T07:46:03;54.78;;;27.05;;
58472;SDS011;44775;51.564;5.460;2023-02-11T07:48:30;48.70;;;25.92;;
58472;SDS011;44775;51.564;5.460;2023-02-11T07:51:03;54.22;;;26.17;;
58472;SDS011;44775;51.564;5.460;2023-02-11T07:53:33;46.10;;;25.55;;
58472;SDS011;44775;51.564;5.460;2023-02-11T07:55:58;40.67;;;20.08;;
58472;SDS011;44775;51.564;5.460;2023-02-11T07:58:24;47.15;;;25.80;;
58472;SDS011;44775;51.564;5.460;2023-02-11T08:00:49;52.63;;;26.98;;
58472;SDS011;44775;51.564;5.460;2023-02-11T08:03:14;52.83;;;27.52;;
58472;SDS011;44775;51.564;5.460;2023-02-11T08:05:40;48.70;;;26.60;;
58472;SDS011;44775;51.564;5.460;2023-02-11T08:08:06;51.90;;;23.75;;
58472;SDS011;44775;51.564;5.460;2023-02-11T08:10:31;53.97;;;26.58;;
58472;SDS011;44775;51.564;5.460;2023-02-11T08:12:57;53.53;;;26.23;;
58472;SDS011;44775;51.564;5.460;2023-02-11T08:15:22;54.42;;;28.85;;
58472;SDS011;44775;51.564;5.460;2023-02-11T08:17:48;49.60;;;24.73;;
58472;SDS011;44775;51.564;5.460;2023-02-11T08:20:13;58.92;;;28.80;;
58472;SDS011;44775;51.564;5.460;2023-02-11T08:22:39;59.15;;;29.52;;
58472;SDS011;44775;51.564;5.460;2023-02-11T08:25:05;54.95;;;28.63;;
58472;SDS011;44775;51.564;5.460;2023-02-11T08:27:30;55.58;;;29.10;;
58472;SDS011;44775;51.564;5.460;2023-02-11T08:29:56;58.78;;;28.65;;
58472;SDS011;44775;51.564;5.460;2023-02-11T08:32:23;59.50;;;28.45;;
58472;SDS011;44775;51.564;5.460;2023-02-11T08:34:50;59.13;;;28.45;;
58472;SDS011;44775;51.564;5.460;2023-02-11T08:37:16;59.00;;;28.05;;
58472;SDS011;44775;51.564;5.460;2023-02-11T08:39:42;60.20;;;28.88;;
58472;SDS011;44775;51.564;5.460;2023-02-11T08:42:07;55.25;;;28.27;;
58472;SDS011;44775;51.564;5.460;2023-02-11T08:44:33;62.90;;;30.08;;
58472;SDS011;44775;51.564;5.460;2023-02-11T08:46:58;56.22;;;28.92;;
58472;SDS011;44775;51.564;5.460;2023-02-11T08:49:24;56.80;;;28.95;;
58472;SDS011;44775;51.564;5.460;2023-02-11T08:51:49;60.05;;;28.65;;
58472;SDS011;44775;51.564;5.460;2023-02-11T08:54:15;56.60;;;29.30;;
58472;SDS011;44775;51.564;5.460;2023-02-11T08:56:40;57.95;;;28.02;;
58472;SDS011;44775;51.564;5.460;2023-02-11T08:59:06;63.47;;;29.85;;
58472;SDS011;44775;51.564;5.460;2023-02-11T09:01:33;59.90;;;29.42;;
58472;SDS011;44775;51.564;5.460;2023-02-11T09:03:59;61.17;;;30.27;;
58472;SDS011;44775;51.564;5.460;2023-02-11T09:06:25;59.92;;;29.30;;
58472;SDS011;44775;51.564;5.460;2023-02-11T09:08:51;59.47;;;29.92;;
58472;SDS011;44775;51.564;5.460;2023-02-11T09:11:20;64.28;;;29.92;;
58472;SDS011;44775;51.564;5.460;2023-02-11T09:13:49;63.85;;;29.85;;
58472;SDS011;44775;51.564;5.460;2023-02-11T09:16:18;51.58;;;29.88;;
58472;SDS011;44775;51.564;5.460;2023-02-11T09:18:46;59.83;;;30.40;;
58472;SDS011;44775;51.564;5.460;2023-02-11T09:21:12;58.72;;;31.10;;
58472;SDS011;44775;51.564;5.460;2023-02-11T09:23:39;61.95;;;33.10;;
58472;SDS011;44775;51.564;5.460;2023-02-11T09:26:29;55.33;;;30.47;;
58472;SDS011;44775;51.564;5.460;2023-02-11T09:28:55;56.65;;;30.92;;
58472;SDS011;44775;51.564;5.460;2023-02-11T09:31:22;59.75;;;31.73;;
58472;SDS011;44775;51.564;5.460;2023-02-11T09:33:50;62.05;;;30.70;;
58472;SDS011;44775;51.564;5.460;2023-02-11T09:36:18;62.38;;;31.27;;
58472;SDS011;44775;51.564;5.460;2023-02-11T09:38:52;63.08;;;31.13;;
58472;SDS011;44775;51.564;5.460;2023-02-11T09:43:56;56.63;;;30.73;;
58472;SDS011;44775;51.564;5.460;2023-02-11T09:46:24;61.22;;;30.83;;
58472;SDS011;44775;51.564;5.460;2023-02-11T09:48:52;62.45;;;30.73;;
58472;SDS011;44775;51.564;5.460;2023-02-11T09:54:11;61.90;;;32.03;;
58472;SDS011;44775;51.564;5.460;2023-02-11T09:56:42;63.58;;;30.75;;
58472;SDS011;44775;51.564;5.460;2023-02-11T09:59:09;60.20;;;31.55;;
58472;SDS011;44775;51.564;5.460;2023-02-11T10:01:40;61.13;;;30.55;;
58472;SDS011;44775;51.564;5.460;2023-02-11T10:06:56;61.60;;;31.83;;
58472;SDS011;44775;51.564;5.460;2023-02-11T10:12:51;68.78;;;31.30;;
